Time;durP1;ratioP1;P1;durP2;ratioP2;P2;SDS_P1;SDS_P2;PMS_P1;PMS_P2;Temp;Humidity;BMP_temperature;BMP_pressure;BME280_temperature;BME280_humidity;BME280_pressure;Samples;Min_cycle;Max_cycle;Signal;HPM_P1;HPM_P2
2023/04/28 00:01:43;;;;;;;5.63;5.10;;;;;;;;;;4942306;28;20234;-74
2023/04/28 00:04:09;;;;;;;6.27;4.87;;;;;;;;;;4941585;28;20696;-75
2023/04/28 00:06:39;;;;;;;5.80;5.17;;;;;;;;;;4936497;28;20223;-74
2023/04/28 00:09:11;;;;;;;5.60;5.00;;;;;;;;;;4964082;28;20610;-75
2023/04/28 00:11:37;;;;;;;7.47;5.37;;;;;;;;;;4941952;28;20410;-74
2023/04/28 00:14:03;;;;;;;7.23;5.40;;;;;;;;;;4942816;28;20272;-74
2023/04/28 00:16:29;;;;;;;5.50;5.00;;;;;;;;;;4924447;28;20227;-73
2023/04/28 00:19:02;;;;;;;5.60;5.10;;;;;;;;;;4941404;28;20227;-74
2023/04/28 00:21:28;;;;;;;5.50;4.93;;;;;;;;;;4937843;28;20361;-74
2023/04/28 00:23:53;;;;;;;6.73;5.20;;;;;;;;;;4971144;28;20235;-73
2023/04/28 00:26:19;;;;;;;10.87;5.73;;;;;;;;;;4943674;28;20234;-74
2023/04/28 00:28:45;;;;;;;5.83;5.23;;;;;;;;;;4959975;28;20227;-74
2023/04/28 00:31:15;;;;;;;6.67;5.53;;;;;;;;;;4937328;28;20215;-74
2023/04/28 00:33:43;;;;;;;6.30;5.40;;;;;;;;;;4936580;29;20296;-74
2023/04/28 00:36:13;;;;;;;7.07;5.47;;;;;;;;;;4943776;28;20712;-74
2023/04/28 00:38:41;;;;;;;8.43;5.10;;;;;;;;;;4944345;28;20313;-74
2023/04/28 00:41:09;;;;;;;6.10;4.90;;;;;;;;;;4946268;28;20238;-74
2023/04/28 00:43:49;;;;;;;5.73;4.83;;;;;;;;;;4952423;28;20229;-74
2023/04/28 00:46:26;;;;;;;6.07;5.43;;;;;;;;;;4966844;28;20222;-74
2023/04/28 00:48:54;;;;;;;6.30;5.70;;;;;;;;;;4966715;28;20577;-74
2023/04/28 00:51:23;;;;;;;6.13;5.40;;;;;;;;;;4944584;28;20243;-74
2023/04/28 00:53:51;;;;;;;6.37;5.47;;;;;;;;;;4926015;29;20235;-74
2023/04/28 00:56:17;;;;;;;8.00;5.63;;;;;;;;;;4955735;28;20400;-74
2023/04/28 00:58:42;;;;;;;6.80;6.10;;;;;;;;;;4943071;28;20727;-74
2023/04/28 01:01:11;;;;;;;7.43;6.03;;;;;;;;;;4968012;28;20223;-74
2023/04/28 01:03:38;;;;;;;6.73;5.67;;;;;;;;;;4936735;28;20724;-73
2023/04/28 01:06:05;;;;;;;8.57;5.80;;;;;;;;;;4940975;28;20350;-74
2023/04/28 01:08:31;;;;;;;9.10;5.97;;;;;;;;;;4927530;28;20575;-74
2023/04/28 01:10:58;;;;;;;8.60;5.87;;;;;;;;;;4951242;28;20632;-74
2023/04/28 01:13:46;;;;;;;6.97;5.70;;;;;;;;;;4929727;28;20225;-74
2023/04/28 01:16:13;;;;;;;9.70;5.83;;;;;;;;;;4942334;28;20227;-75
2023/04/28 01:18:41;;;;;;;6.50;5.60;;;;;;;;;;4952266;28;20347;-74
2023/04/28 01:21:07;;;;;;;6.83;5.90;;;;;;;;;;4926357;28;20236;-74
2023/04/28 01:23:33;;;;;;;7.43;5.60;;;;;;;;;;4942067;28;20229;-73
2023/04/28 01:25:58;;;;;;;7.73;5.67;;;;;;;;;;4954928;28;20306;-72
2023/04/28 01:28:24;;;;;;;7.60;5.80;;;;;;;;;;4925345;28;20583;-74
2023/04/28 01:30:49;;;;;;;6.97;5.47;;;;;;;;;;4935814;28;20222;-74
2023/04/28 01:33:17;;;;;;;6.40;5.73;;;;;;;;;;4966599;28;20230;-74
2023/04/28 01:35:45;;;;;;;7.93;5.83;;;;;;;;;;4951520;28;20229;-74
2023/04/28 01:38:13;;;;;;;7.27;6.00;;;;;;;;;;4965741;28;20226;-74
2023/04/28 01:40:39;;;;;;;6.23;5.73;;;;;;;;;;4950607;28;20230;-74
2023/04/28 01:43:07;;;;;;;7.37;6.03;;;;;;;;;;4966284;28;20836;-74
2023/04/28 01:45:39;;;;;;;6.73;6.00;;;;;;;;;;4967720;28;20215;-75
2023/04/28 01:48:09;;;;;;;6.37;5.73;;;;;;;;;;4924461;28;20616;-73
2023/04/28 01:50:37;;;;;;;6.23;5.60;;;;;;;;;;4943641;28;20289;-75
2023/04/28 01:53:06;;;;;;;6.13;5.40;;;;;;;;;;4965782;28;20234;-75
2023/04/28 01:55:32;;;;;;;6.00;5.40;;;;;;;;;;4945288;28;20246;-75
2023/04/28 01:57:59;;;;;;;7.73;5.60;;;;;;;;;;4950854;28;20223;-74
2023/04/28 02:00:30;;;;;;;6.10;5.60;;;;;;;;;;4943869;28;20250;-74
2023/04/28 02:02:58;;;;;;;6.23;5.63;;;;;;;;;;4934478;28;20239;-74
2023/04/28 02:05:25;;;;;;;6.87;6.13;;;;;;;;;;4966030;28;20704;-74
2023/04/28 02:07:51;;;;;;;6.17;5.47;;;;;;;;;;4941036;28;20731;-74
2023/04/28 02:10:18;;;;;;;6.27;5.50;;;;;;;;;;4934829;28;20246;-75
2023/04/28 02:12:46;;;;;;;6.30;5.60;;;;;;;;;;4941895;28;20225;-74
2023/04/28 02:15:15;;;;;;;8.37;5.53;;;;;;;;;;4940144;28;20230;-74
2023/04/28 02:17:46;;;;;;;6.23;5.63;;;;;;;;;;4954425;28;20242;-75
2023/04/28 02:20:14;;;;;;;8.33;5.70;;;;;;;;;;4964882;28;20700;-74
2023/04/28 02:22:42;;;;;;;9.67;5.37;;;;;;;;;;4967259;28;20222;-74
2023/04/28 02:25:10;;;;;;;7.30;5.73;;;;;;;;;;4926088;28;20263;-75
2023/04/28 02:27:37;;;;;;;6.60;5.30;;;;;;;;;;4938390;28;20233;-74
2023/04/28 02:30:11;;;;;;;6.27;5.67;;;;;;;;;;4926453;28;20243;-75
2023/04/28 02:32:41;;;;;;;6.37;5.77;;;;;;;;;;4939823;28;20222;-74
2023/04/28 02:35:07;;;;;;;6.93;5.47;;;;;;;;;;4941970;28;20278;-74
2023/04/28 02:37:33;;;;;;;7.77;5.37;;;;;;;;;;4935938;28;20302;-75
2023/04/28 02:39:58;;;;;;;5.80;5.30;;;;;;;;;;4940460;28;20594;-75
2023/04/28 02:42:26;;;;;;;6.97;5.20;;;;;;;;;;4948487;28;20233;-74
2023/04/28 02:44:51;;;;;;;8.37;5.90;;;;;;;;;;4949655;28;20226;-74
2023/04/28 02:47:21;;;;;;;6.87;5.60;;;;;;;;;;4924568;28;20839;-74
2023/04/28 02:49:49;;;;;;;7.33;5.70;;;;;;;;;;4942628;28;20976;-74
2023/04/28 02:52:15;;;;;;;5.83;5.03;;;;;;;;;;4939595;28;20228;-74
2023/04/28 02:54:47;;;;;;;6.53;5.30;;;;;;;;;;4945525;28;20265;-74
2023/04/28 02:57:19;;;;;;;5.33;4.83;;;;;;;;;;4939641;28;20617;-74
2023/04/28 02:59:46;;;;;;;5.77;5.27;;;;;;;;;;4943288;28;20708;-74
2023/04/28 03:02:12;;;;;;;7.87;5.03;;;;;;;;;;4920360;28;20602;-74
2023/04/28 03:04:38;;;;;;;6.83;5.20;;;;;;;;;;4965481;28;20229;-74
2023/04/28 03:07:08;;;;;;;7.40;5.13;;;;;;;;;;4937849;28;20234;-74
2023/04/28 03:09:33;;;;;;;6.00;4.90;;;;;;;;;;4964831;28;20219;-74
2023/04/28 03:11:59;;;;;;;7.20;4.80;;;;;;;;;;4932340;29;20265;-74
2023/04/28 03:14:29;;;;;;;5.53;4.67;;;;;;;;;;4965292;28;20222;-74
2023/04/28 03:16:56;;;;;;;6.37;4.93;;;;;;;;;;4949071;28;20227;-74
2023/04/28 03:19:22;;;;;;;6.87;5.03;;;;;;;;;;4964227;28;20221;-73
2023/04/28 03:21:47;;;;;;;6.37;4.93;;;;;;;;;;4939853;28;20227;-74
2023/04/28 03:24:13;;;;;;;5.40;4.30;;;;;;;;;;4922783;28;20614;-74
2023/04/28 03:26:38;;;;;;;6.23;4.10;;;;;;;;;;4940579;28;20693;-74
2023/04/28 03:29:07;;;;;;;7.43;4.80;;;;;;;;;;4921389;28;20230;-74
2023/04/28 03:31:33;;;;;;;6.80;4.50;;;;;;;;;;4938394;28;20232;-73
2023/04/28 03:34:02;;;;;;;5.00;4.13;;;;;;;;;;4949388;28;20218;-73
2023/04/28 03:36:30;;;;;;;4.47;4.03;;;;;;;;;;4963455;28;20233;-74
2023/04/28 03:39:02;;;;;;;4.80;4.37;;;;;;;;;;4944165;28;20695;-74
2023/04/28 03:41:35;;;;;;;6.90;4.57;;;;;;;;;;4969467;23;20230;-85
2023/04/28 03:44:22;;;;;;;4.90;3.90;;;;;;;;;;5002182;28;20632;-79
2023/04/28 03:46:48;;;;;;;5.03;4.00;;;;;;;;;;4992621;28;20209;-79
2023/04/28 03:49:14;;;;;;;4.80;3.77;;;;;;;;;;4986784;28;20739;-79
2023/04/28 03:51:40;;;;;;;6.67;4.27;;;;;;;;;;4986425;28;20980;-79
2023/04/28 03:54:06;;;;;;;6.07;4.50;;;;;;;;;;4994190;28;20243;-78
2023/04/28 03:56:37;;;;;;;4.93;4.03;;;;;;;;;;5002544;28;20220;-81
2023/04/28 03:59:03;;;;;;;4.80;3.90;;;;;;;;;;5002549;28;20932;-80
2023/04/28 04:01:29;;;;;;;4.20;3.80;;;;;;;;;;4992247;28;20242;-81
2023/04/28 04:03:54;;;;;;;4.50;4.10;;;;;;;;;;5001170;28;20234;-79
2023/04/28 04:06:20;;;;;;;4.73;3.90;;;;;;;;;;4999562;28;20693;-80
2023/04/28 04:08:46;;;;;;;5.80;4.00;;;;;;;;;;5009582;28;20220;-78
2023/04/28 04:11:11;;;;;;;6.10;3.80;;;;;;;;;;4991064;28;20208;-81
2023/04/28 04:13:39;;;;;;;6.50;4.00;;;;;;;;;;5001354;28;20219;-79
2023/04/28 04:16:09;;;;;;;4.60;4.13;;;;;;;;;;4993729;28;20213;-80
2023/04/28 04:18:35;;;;;;;3.97;3.53;;;;;;;;;;5001282;28;20239;-81
2023/04/28 04:21:17;;;;;;;5.43;3.60;;;;;;;;;;4998112;28;20233;-80
2023/04/28 04:23:46;;;;;;;5.30;4.00;;;;;;;;;;5008353;28;20219;-80
2023/04/28 04:26:24;;;;;;;5.20;3.77;;;;;;;;;;4976097;28;20596;-80
2023/04/28 04:29:11;;;;;;;;;;;;;;;;;;;;;
2023/04/28 04:32:00;;;;;;;3.87;3.47;;;;;;;;;;5001041;28;20235;-79
2023/04/28 04:34:31;;;;;;;4.37;3.73;;;;;;;;;;5022873;28;20224;-80
2023/04/28 04:37:13;;;;;;;5.07;3.50;;;;;;;;;;4974318;28;20235;-81
2023/04/28 04:39:45;;;;;;;6.77;3.50;;;;;;;;;;5003289;28;20211;-79
2023/04/28 04:42:21;;;;;;;3.80;3.50;;;;;;;;;;4984806;28;20224;-80
2023/04/28 04:45:16;;;;;;;7.13;3.70;;;;;;;;;;4994034;28;20217;-78
2023/04/28 04:47:55;;;;;;;5.83;3.60;;;;;;;;;;4991126;28;20235;-81
2023/04/28 04:50:20;;;;;;;6.20;3.77;;;;;;;;;;4960457;28;20295;-80
2023/04/28 04:53:06;;;;;;;3.50;3.20;;;;;;;;;;4990181;28;20311;-79
2023/04/28 04:55:42;;;;;;;4.73;4.00;;;;;;;;;;5008568;28;20224;-80
2023/04/28 04:58:20;;;;;;;4.33;3.43;;;;;;;;;;4976902;28;20227;-81
2023/04/28 05:01:16;;;;;;;5.37;3.63;;;;;;;;;;4985354;28;20319;-78
2023/04/28 05:03:43;;;;;;;5.30;3.63;;;;;;;;;;4979622;28;20227;-79
2023/04/28 05:06:09;;;;;;;6.10;3.80;;;;;;;;;;4981649;28;20217;-81
2023/04/28 05:08:48;;;;;;;4.90;3.60;;;;;;;;;;5004862;28;20739;-81
2023/04/28 05:11:24;;;;;;;3.80;3.40;;;;;;;;;;4989344;28;20216;-79
2023/04/28 05:13:50;;;;;;;5.07;3.40;;;;;;;;;;4974144;28;20603;-80
2023/04/28 05:16:18;;;;;;;7.30;3.50;;;;;;;;;;5003891;28;20236;-80
2023/04/28 05:19:38;;;;;;;3.70;3.40;;;;;;;;;;4994014;28;20224;-78
2023/04/28 05:22:29;;;;;;;3.90;3.47;;;;;;;;;;4977075;28;20256;-80
2023/04/28 05:25:05;;;;;;;;;;;;;;;;;;;;;
2023/04/28 05:28:06;;;;;;;6.27;3.30;;;;;;;;;;5029803;28;21179;-78
2023/04/28 05:31:24;;;;;;;5.63;3.47;;;;;;;;;;4968178;28;20219;-79
2023/04/28 05:33:52;;;;;;;4.80;3.30;;;;;;;;;;5005766;28;20250;-81
2023/04/28 05:36:42;;;;;;;;;;;;;;;;;;;;;
2023/04/28 05:42:26;;;;;;;4.43;3.38;;;;;;;;;;4999836;28;20422;-80
2023/04/28 05:44:52;;;;;;;4.77;3.27;;;;;;;;;;4992659;28;21103;-79
2023/04/28 05:47:22;;;;;;;4.20;3.40;;;;;;;;;;4985666;28;20591;-78
2023/04/28 05:49:50;;;;;;;5.33;3.60;;;;;;;;;;4985319;28;20635;-80
2023/04/28 05:52:18;;;;;;;7.67;3.40;;;;;;;;;;4986810;28;20286;-79
2023/04/28 05:54:46;;;;;;;5.87;3.60;;;;;;;;;;4995309;28;20274;-79
2023/04/28 05:57:13;;;;;;;4.80;3.50;;;;;;;;;;4992575;28;20216;-81
2023/04/28 05:59:39;;;;;;;5.27;3.43;;;;;;;;;;5009560;28;20223;-80
2023/04/28 06:02:05;;;;;;;3.97;3.40;;;;;;;;;;4991307;28;20212;-79
2023/04/28 06:04:31;;;;;;;4.53;3.60;;;;;;;;;;5001476;28;20223;-77
2023/04/28 06:06:56;;;;;;;5.27;3.43;;;;;;;;;;4980989;28;20212;-77
2023/04/28 06:09:22;;;;;;;3.93;3.27;;;;;;;;;;5001991;28;20282;-79
2023/04/28 06:11:54;;;;;;;4.40;3.57;;;;;;;;;;5004838;28;20230;-79
2023/04/28 06:14:21;;;;;;;5.70;3.60;;;;;;;;;;4979550;28;20228;-79
2023/04/28 06:16:49;;;;;;;4.53;3.60;;;;;;;;;;4983524;28;20279;-79
2023/04/28 06:19:19;;;;;;;4.93;3.50;;;;;;;;;;4992815;28;20247;-79
2023/04/28 06:21:45;;;;;;;4.77;3.43;;;;;;;;;;4980000;28;20320;-81
2023/04/28 06:24:13;;;;;;;6.33;3.83;;;;;;;;;;4996021;28;20224;-80
2023/04/28 06:26:43;;;;;;;4.13;3.80;;;;;;;;;;4988825;28;20219;-80
2023/04/28 06:29:11;;;;;;;4.90;3.60;;;;;;;;;;4977892;28;20233;-77
2023/04/28 06:31:41;;;;;;;6.20;3.87;;;;;;;;;;4995428;28;20240;-79
2023/04/28 06:34:07;;;;;;;5.47;3.63;;;;;;;;;;4984182;28;20595;-79
2023/04/28 06:36:34;;;;;;;4.90;3.50;;;;;;;;;;4995004;28;20216;-80
2023/04/28 06:39:03;;;;;;;4.07;3.43;;;;;;;;;;4980254;28;20209;-79
2023/04/28 06:41:29;;;;;;;4.00;3.70;;;;;;;;;;4982281;28;20229;-80
2023/04/28 06:43:55;;;;;;;6.13;3.70;;;;;;;;;;4985850;28;20226;-79
2023/04/28 06:46:28;;;;;;;5.03;3.70;;;;;;;;;;4997772;28;20724;-81
2023/04/28 06:48:53;;;;;;;4.43;3.60;;;;;;;;;;4994805;28;20278;-81
2023/04/28 06:51:24;;;;;;;6.20;3.40;;;;;;;;;;5012451;28;20216;-78
2023/04/28 06:53:52;;;;;;;4.70;3.43;;;;;;;;;;4998410;28;20304;-80
2023/04/28 06:56:17;;;;;;;6.20;3.70;;;;;;;;;;5025237;28;20295;-79
2023/04/28 06:58:49;;;;;;;5.27;3.60;;;;;;;;;;4998494;28;20219;-80
2023/04/28 07:01:15;;;;;;;6.23;3.37;;;;;;;;;;5006237;28;20671;-81
2023/04/28 07:03:41;;;;;;;3.90;3.40;;;;;;;;;;4979928;28;20291;-80
2023/04/28 07:06:10;;;;;;;4.90;3.60;;;;;;;;;;4998387;28;20224;-78
2023/04/28 07:08:35;;;;;;;4.80;3.47;;;;;;;;;;4989064;28;20278;-81
2023/04/28 07:11:05;;;;;;;4.87;3.33;;;;;;;;;;4983553;28;20216;-81
2023/04/28 07:13:31;;;;;;;3.80;3.20;;;;;;;;;;5013289;28;20289;-78
2023/04/28 07:15:56;;;;;;;5.57;3.53;;;;;;;;;;5004309;28;20220;-79
2023/04/28 07:18:22;;;;;;;4.53;3.50;;;;;;;;;;4986913;28;20236;-79
2023/04/28 07:20:47;;;;;;;4.20;3.23;;;;;;;;;;5009132;28;20209;-79
2023/04/28 07:23:13;;;;;;;6.27;3.70;;;;;;;;;;4994889;28;20235;-79
2023/04/28 07:25:42;;;;;;;5.77;3.37;;;;;;;;;;4996448;28;20230;-78
2023/04/28 07:28:07;;;;;;;4.27;3.50;;;;;;;;;;4977940;28;20255;-79
2023/04/28 07:30:33;;;;;;;7.03;3.60;;;;;;;;;;4991354;28;20221;-78
2023/04/28 07:32:59;;;;;;;4.33;3.33;;;;;;;;;;5000888;28;20219;-80
2023/04/28 07:35:24;;;;;;;5.20;3.60;;;;;;;;;;5008847;28;20686;-80
2023/04/28 07:37:53;;;;;;;4.23;3.47;;;;;;;;;;4996034;28;20227;-78
2023/04/28 07:40:21;;;;;;;4.90;3.53;;;;;;;;;;4995246;28;20216;-78
2023/04/28 07:42:47;;;;;;;6.93;4.00;;;;;;;;;;5023199;28;20248;-78
2023/04/28 07:45:13;;;;;;;5.97;4.13;;;;;;;;;;4993840;28;20798;-79
2023/04/28 07:47:38;;;;;;;6.03;4.00;;;;;;;;;;4999832;28;20227;-78
2023/04/28 07:50:10;;;;;;;5.27;4.10;;;;;;;;;;4994867;28;20236;-77
2023/04/28 07:52:36;;;;;;;6.37;4.33;;;;;;;;;;4987575;28;20227;-78
2023/04/28 07:55:02;;;;;;;5.60;4.67;;;;;;;;;;5009321;28;20228;-78
2023/04/28 07:57:30;;;;;;;6.13;4.73;;;;;;;;;;5022701;28;20232;-78
2023/04/28 07:59:55;;;;;;;6.33;5.13;;;;;;;;;;4979948;28;20216;-80
2023/04/28 08:02:24;;;;;;;6.63;5.20;;;;;;;;;;5002352;28;20224;-78
2023/04/28 08:04:50;;;;;;;6.60;4.67;;;;;;;;;;4986558;28;20728;-77
2023/04/28 08:07:16;;;;;;;6.43;5.10;;;;;;;;;;4988316;28;20231;-78
2023/04/28 08:09:45;;;;;;;9.70;4.97;;;;;;;;;;4996936;28;20219;-78
2023/04/28 08:12:12;;;;;;;8.00;5.30;;;;;;;;;;4995362;28;20634;-78
2023/04/28 08:14:37;;;;;;;7.72;5.03;;;;;;;;;;4990549;28;20265;-78
2023/04/28 08:17:03;;;;;;;6.67;4.80;;;;;;;;;;4994278;28;20217;-80
2023/04/28 08:19:33;;;;;;;7.53;5.10;;;;;;;;;;4995735;28;20688;-79
2023/04/28 08:21:58;;;;;;;7.03;4.53;;;;;;;;;;4995463;28;20242;-79
2023/04/28 08:24:24;;;;;;;8.55;4.72;;;;;;;;;;4997787;28;20228;-79
2023/04/28 08:26:49;;;;;;;5.55;4.80;;;;;;;;;;4994829;28;20212;-77
2023/04/28 08:29:15;;;;;;;5.30;4.80;;;;;;;;;;5010619;28;20467;-80
2023/04/28 08:31:41;;;;;;;6.00;5.18;;;;;;;;;;5012246;28;20282;-80
2023/04/28 08:34:06;;;;;;;8.32;4.78;;;;;;;;;;5011756;28;20233;-77
2023/04/28 08:36:32;;;;;;;6.93;5.20;;;;;;;;;;4995931;28;20224;-79
2023/04/28 08:39:07;;;;;;;6.30;4.95;;;;;;;;;;4986201;28;20785;-78
2023/04/28 08:41:32;;;;;;;8.48;5.43;;;;;;;;;;4994943;28;20242;-78
2023/04/28 08:43:58;;;;;;;7.15;5.88;;;;;;;;;;5001144;28;20251;-77
2023/04/28 08:46:26;;;;;;;8.85;5.65;;;;;;;;;;5015028;28;20230;-77
2023/04/28 08:48:58;;;;;;;8.50;5.00;;;;;;;;;;4999267;28;20232;-80
2023/04/28 08:51:32;;;;;;;6.70;5.28;;;;;;;;;;4997693;28;20234;-77
2023/04/28 08:54:00;;;;;;;6.47;5.25;;;;;;;;;;4999485;28;20283;-80
2023/04/28 08:56:26;;;;;;;9.20;4.97;;;;;;;;;;4980049;28;20705;-80
2023/04/28 08:58:52;;;;;;;8.98;5.65;;;;;;;;;;4995532;28;20220;-78
2023/04/28 09:01:17;;;;;;;6.93;6.07;;;;;;;;;;4991008;28;20263;-81
2023/04/28 09:03:46;;;;;;;6.35;5.70;;;;;;;;;;5015162;28;20243;-79
2023/04/28 09:06:12;;;;;;;8.25;5.43;;;;;;;;;;5002993;28;20245;-79
2023/04/28 09:08:37;;;;;;;8.35;5.70;;;;;;;;;;5008657;28;20228;-78
2023/04/28 09:11:06;;;;;;;5.88;4.93;;;;;;;;;;5007112;28;20224;-78
2023/04/28 09:13:33;;;;;;;7.47;5.15;;;;;;;;;;5034883;28;20323;-77
2023/04/28 09:15:59;;;;;;;8.75;5.45;;;;;;;;;;5013359;28;20220;-80
2023/04/28 09:18:25;;;;;;;7.28;4.68;;;;;;;;;;5000186;28;20228;-78
2023/04/28 09:20:51;;;;;;;8.32;5.10;;;;;;;;;;4964093;28;20250;-79
2023/04/28 09:23:17;;;;;;;5.78;5.20;;;;;;;;;;4987289;28;20304;-78
2023/04/28 09:25:58;;;;;;;9.20;6.28;;;;;;;;;;5026346;28;20231;-80
2023/04/28 09:28:28;;;;;;;5.35;4.85;;;;;;;;;;5023842;28;20211;-78
2023/04/28 09:30:56;;;;;;;6.63;5.20;;;;;;;;;;5020341;28;20220;-79
2023/04/28 09:33:24;;;;;;;10.45;5.53;;;;;;;;;;4996423;28;20217;-79
2023/04/28 09:35:50;;;;;;;9.60;5.63;;;;;;;;;;5006695;28;20222;-77
2023/04/28 09:38:18;;;;;;;6.85;5.30;;;;;;;;;;4993317;28;20246;-80
2023/04/28 09:41:00;;;;;;;7.97;5.20;;;;;;;;;;4995066;28;20223;-80
2023/04/28 09:43:33;;;;;;;10.60;5.22;;;;;;;;;;5007442;28;20232;-80
2023/04/28 09:46:04;;;;;;;8.25;5.18;;;;;;;;;;4997081;28;20243;-81
2023/04/28 09:48:34;;;;;;;6.65;5.18;;;;;;;;;;4982134;28;21124;-80
2023/04/28 09:51:04;;;;;;;7.25;5.32;;;;;;;;;;4991201;28;20221;-80
2023/04/28 09:53:35;;;;;;;8.23;5.80;;;;;;;;;;4988544;28;20224;-81
2023/04/28 09:56:06;;;;;;;6.57;5.43;;;;;;;;;;5008085;28;20216;-79
2023/04/28 09:58:34;;;;;;;10.35;5.22;;;;;;;;;;4986702;28;20249;-79
2023/04/28 10:00:59;;;;;;;7.60;5.32;;;;;;;;;;4994980;28;20216;-80
2023/04/28 10:03:28;;;;;;;7.57;5.40;;;;;;;;;;4973663;28;20686;-79
2023/04/28 10:05:54;;;;;;;7.50;4.88;;;;;;;;;;4999892;28;20736;-86
2023/04/28 10:08:23;;;;;;;10.68;4.90;;;;;;;;;;4997398;28;20229;-85
2023/04/28 10:10:49;;;;;;;5.28;4.78;;;;;;;;;;4990383;28;20213;-84
2023/04/28 10:13:18;;;;;;;7.43;4.95;;;;;;;;;;5015495;28;20284;-83
2023/04/28 10:15:46;;;;;;;7.65;4.93;;;;;;;;;;4998785;28;20248;-84
2023/04/28 10:18:13;;;;;;;7.60;5.30;;;;;;;;;;4997245;28;20226;-83
2023/04/28 10:20:40;;;;;;;6.75;5.18;;;;;;;;;;5000056;28;20226;-83
2023/04/28 10:23:08;;;;;;;9.05;5.72;;;;;;;;;;4996916;28;20258;-83
2023/04/28 10:25:37;;;;;;;7.78;4.85;;;;;;;;;;5030928;28;20232;-84
2023/04/28 10:28:06;;;;;;;6.10;4.65;;;;;;;;;;4981846;28;20208;-83
2023/04/28 10:30:35;;;;;;;7.03;5.22;;;;;;;;;;4985979;28;20224;-85
2023/04/28 10:33:14;;;;;;;7.50;5.15;;;;;;;;;;5013978;28;20258;-85
2023/04/28 10:35:46;;;;;;;9.57;5.18;;;;;;;;;;4998398;28;21035;-84
2023/04/28 10:38:16;;;;;;;6.60;5.53;;;;;;;;;;4982664;28;20307;-86
2023/04/28 10:40:45;;;;;;;5.40;4.90;;;;;;;;;;4997601;28;20300;-84
2023/04/28 10:43:33;;;;;;;6.43;4.95;;;;;;;;;;5000661;28;20307;-87
2023/04/28 10:46:03;;;;;;;8.10;5.20;;;;;;;;;;4984798;28;20224;-86
2023/04/28 10:48:29;;;;;;;6.32;4.90;;;;;;;;;;4964310;28;20220;-86
2023/04/28 10:51:05;;;;;;;7.80;4.95;;;;;;;;;;5028155;28;20223;-86
2023/04/28 10:56:08;;;;;;;10.85;5.32;;;;;;;;;;5018489;28;20244;-85
2023/04/28 10:58:41;;;;;;;10.73;5.07;;;;;;;;;;5020967;28;20307;-85
2023/04/28 11:01:19;;;;;;;9.57;5.22;;;;;;;;;;5011560;28;20880;-86
2023/04/28 11:03:59;;;;;;;8.77;5.00;;;;;;;;;;5019652;28;20522;-84
2023/04/28 11:06:40;;;;;;;7.00;5.00;;;;;;;;;;5024764;28;20231;-84
2023/04/28 11:09:14;;;;;;;7.25;5.10;;;;;;;;;;4998517;28;20232;-85
2023/04/28 11:12:05;;;;;;;6.22;4.97;;;;;;;;;;5031788;28;20220;-85
2023/04/28 11:14:34;;;;;;;5.65;4.50;;;;;;;;;;5016032;28;20607;-86
2023/04/28 11:17:01;;;;;;;7.47;4.32;;;;;;;;;;5009118;28;20258;-86
2023/04/28 11:19:34;;;;;;;6.45;4.82;;;;;;;;;;5014774;28;20220;-86
2023/04/28 11:22:12;;;;;;;9.15;4.70;;;;;;;;;;4975991;28;20758;-84
2023/04/28 11:24:40;;;;;;;5.93;4.72;;;;;;;;;;5018977;28;20232;-86
2023/04/28 11:27:05;;;;;;;6.72;4.80;;;;;;;;;;4975343;28;20278;-84
2023/04/28 11:29:36;;;;;;;6.43;5.07;;;;;;;;;;4994930;28;20213;-85
2023/04/28 11:32:06;;;;;;;7.00;5.10;;;;;;;;;;4988581;28;20230;-81
2023/04/28 11:34:37;;;;;;;7.85;4.80;;;;;;;;;;4981824;28;20228;-82
2023/04/28 11:37:02;;;;;;;8.25;5.03;;;;;;;;;;5000233;28;20220;-81
2023/04/28 11:39:32;;;;;;;7.10;5.00;;;;;;;;;;5000741;28;20645;-81
2023/04/28 11:41:58;;;;;;;8.23;5.25;;;;;;;;;;5000656;28;20219;-81
2023/04/28 11:44:25;;;;;;;6.10;5.03;;;;;;;;;;5000929;28;20220;-81
2023/04/28 11:46:55;;;;;;;5.72;4.90;;;;;;;;;;4998888;28;20374;-78
2023/04/28 11:49:23;;;;;;;7.07;4.60;;;;;;;;;;5012471;28;20258;-80
2023/04/28 11:51:49;;;;;;;5.95;4.85;;;;;;;;;;5002781;28;20220;-80
2023/04/28 11:54:24;;;;;;;5.15;4.65;;;;;;;;;;5002728;28;20231;-80
2023/04/28 11:56:53;;;;;;;8.43;4.70;;;;;;;;;;5020069;28;20212;-79
2023/04/28 11:59:31;;;;;;;5.18;4.60;;;;;;;;;;5011367;28;20231;-80
2023/04/28 12:02:01;;;;;;;5.80;5.20;;;;;;;;;;4996553;28;20220;-81
2023/04/28 12:04:29;;;;;;;6.53;5.30;;;;;;;;;;5002636;28;20220;-81
2023/04/28 12:07:05;;;;;;;6.07;5.05;;;;;;;;;;5022461;28;20618;-79
2023/04/28 12:09:37;;;;;;;6.65;4.90;;;;;;;;;;5022837;28;20238;-80
2023/04/28 12:12:05;;;;;;;7.60;4.40;;;;;;;;;;5001764;28;20217;-81
2023/04/28 12:14:54;;;;;;;6.03;4.90;;;;;;;;;;5021448;28;20251;-81
2023/04/28 12:17:30;;;;;;;8.00;4.78;;;;;;;;;;5008438;28;20234;-81
2023/04/28 12:19:58;;;;;;;7.40;4.72;;;;;;;;;;5010764;28;20236;-79
2023/04/28 12:22:25;;;;;;;11.05;5.85;;;;;;;;;;5008730;28;20224;-81
2023/04/28 12:25:07;;;;;;;7.50;4.85;;;;;;;;;;4986447;28;20701;-80
2023/04/28 12:27:35;;;;;;;6.03;4.50;;;;;;;;;;4998428;28;20227;-80
2023/04/28 12:30:04;;;;;;;6.10;5.25;;;;;;;;;;5014137;28;20259;-81
2023/04/28 12:32:40;;;;;;;6.03;4.80;;;;;;;;;;5001437;28;20280;-78
2023/04/28 12:35:06;;;;;;;6.45;4.80;;;;;;;;;;5003635;28;20585;-78
2023/04/28 12:37:34;;;;;;;7.30;5.10;;;;;;;;;;4985756;28;20228;-78
2023/04/28 12:40:03;;;;;;;9.40;5.47;;;;;;;;;;4999069;28;20228;-81
2023/04/28 12:42:33;;;;;;;5.35;4.32;;;;;;;;;;5019104;28;20601;-78
2023/04/28 12:45:02;;;;;;;5.30;4.20;;;;;;;;;;5015200;28;20212;-87
2023/04/28 12:47:27;;;;;;;6.90;4.90;;;;;;;;;;4979783;28;20270;-88
2023/04/28 12:49:53;;;;;;;5.82;4.50;;;;;;;;;;5005099;28;20208;-86
2023/04/28 12:52:21;;;;;;;7.95;4.70;;;;;;;;;;4993412;28;20224;-87
2023/04/28 12:54:50;;;;;;;6.97;4.70;;;;;;;;;;4986988;28;20225;-85
2023/04/28 12:57:21;;;;;;;5.10;4.60;;;;;;;;;;4978073;28;20225;-87
2023/04/28 13:00:07;;;;;;;;;;;;;;;;;;;;;
2023/04/28 13:03:18;;;;;;;7.50;4.80;;;;;;;;;;4961946;28;21220;-87
2023/04/28 13:05:55;;;;;;;8.18;4.63;;;;;;;;;;4968301;28;20216;-85
2023/04/28 13:08:21;;;;;;;5.80;4.40;;;;;;;;;;4989327;28;20231;-85
2023/04/28 13:10:46;;;;;;;5.82;4.40;;;;;;;;;;5003148;28;20236;-84
2023/04/28 13:13:12;;;;;;;5.50;4.57;;;;;;;;;;4973134;28;20228;-84
2023/04/28 13:15:38;;;;;;;6.05;4.60;;;;;;;;;;4989445;28;20215;-86
2023/04/28 13:18:06;;;;;;;5.13;4.32;;;;;;;;;;4988349;28;20260;-86
2023/04/28 13:20:41;;;;;;;7.53;4.85;;;;;;;;;;5000073;28;20456;-87
2023/04/28 13:23:27;;;;;;;6.72;4.70;;;;;;;;;;4966482;28;20227;-79
2023/04/28 13:25:55;;;;;;;5.75;4.43;;;;;;;;;;5013146;28;20246;-77
2023/04/28 13:28:23;;;;;;;8.63;5.20;;;;;;;;;;5008311;28;20220;-81
2023/04/28 13:30:53;;;;;;;7.25;4.40;;;;;;;;;;4998395;28;20287;-78
2023/04/28 13:33:21;;;;;;;5.55;4.47;;;;;;;;;;5019011;28;20220;-82
2023/04/28 13:35:47;;;;;;;5.57;4.32;;;;;;;;;;4977926;28;20257;-77
2023/04/28 13:38:15;;;;;;;7.65;4.68;;;;;;;;;;5009997;28;20334;-79
2023/04/28 13:40:41;;;;;;;6.15;4.50;;;;;;;;;;4996737;28;20227;-79
2023/04/28 13:43:07;;;;;;;4.68;4.20;;;;;;;;;;4994553;28;20248;-80
2023/04/28 13:45:32;;;;;;;7.35;4.60;;;;;;;;;;5000025;28;20226;-79
2023/04/28 13:47:58;;;;;;;6.25;4.35;;;;;;;;;;5011084;28;20219;-78
2023/04/28 13:50:26;;;;;;;7.07;4.60;;;;;;;;;;5014315;28;20216;-80
2023/04/28 13:52:58;;;;;;;8.27;4.00;;;;;;;;;;4992189;28;20222;-79
2023/04/28 13:55:27;;;;;;;6.70;4.45;;;;;;;;;;5016961;28;20231;-79
2023/04/28 13:57:55;;;;;;;6.68;4.07;;;;;;;;;;5022543;28;20344;-80
2023/04/28 14:00:23;;;;;;;5.80;4.30;;;;;;;;;;5008881;28;21011;-79
2023/04/28 14:02:51;;;;;;;4.47;4.07;;;;;;;;;;5006222;28;20582;-79
2023/04/28 14:05:16;;;;;;;6.35;4.30;;;;;;;;;;4979800;28;20225;-78
2023/04/28 14:07:42;;;;;;;6.40;4.53;;;;;;;;;;5001640;28;20218;-78
2023/04/28 14:10:08;;;;;;;5.97;4.22;;;;;;;;;;5001551;28;20220;-79
2023/04/28 14:12:37;;;;;;;5.68;3.90;;;;;;;;;;4997363;28;20337;-79
2023/04/28 14:15:04;;;;;;;5.50;3.78;;;;;;;;;;5003824;28;20224;-82
2023/04/28 14:17:29;;;;;;;5.35;4.10;;;;;;;;;;5017789;28;20721;-77
2023/04/28 14:19:55;;;;;;;5.85;3.95;;;;;;;;;;5000945;28;20234;-78
2023/04/28 14:22:20;;;;;;;6.68;3.92;;;;;;;;;;5029246;28;20216;-80
2023/04/28 14:24:46;;;;;;;10.38;4.53;;;;;;;;;;5013349;28;20229;-81
2023/04/28 14:27:12;;;;;;;5.10;4.32;;;;;;;;;;5008558;28;20218;-80
2023/04/28 14:29:43;;;;;;;5.97;4.45;;;;;;;;;;4990899;28;20688;-79
2023/04/28 14:32:09;;;;;;;5.30;4.55;;;;;;;;;;5004546;28;20216;-79
2023/04/28 14:34:34;;;;;;;5.97;4.18;;;;;;;;;;5017982;28;20304;-81
2023/04/28 14:37:00;;;;;;;6.00;4.55;;;;;;;;;;4990459;28;20212;-79
2023/04/28 14:39:28;;;;;;;5.47;4.30;;;;;;;;;;4992081;28;20588;-80
2023/04/28 14:41:56;;;;;;;6.25;4.38;;;;;;;;;;4992540;28;20231;-80
2023/04/28 14:44:22;;;;;;;6.28;4.65;;;;;;;;;;5022127;28;20235;-79
2023/04/28 14:46:47;;;;;;;4.72;4.18;;;;;;;;;;5010104;28;20229;-82
2023/04/28 14:49:15;;;;;;;9.05;4.63;;;;;;;;;;5010321;28;20288;-79
2023/04/28 14:51:40;;;;;;;7.75;4.47;;;;;;;;;;5025774;28;20216;-80
2023/04/28 14:54:07;;;;;;;9.18;4.35;;;;;;;;;;5006843;28;20257;-80
2023/04/28 14:56:35;;;;;;;5.30;3.80;;;;;;;;;;4981155;28;20217;-81
2023/04/28 14:59:01;;;;;;;6.57;4.32;;;;;;;;;;5003550;28;20325;-79
2023/04/28 15:01:26;;;;;;;5.75;3.97;;;;;;;;;;5014793;28;20243;-77
2023/04/28 15:03:54;;;;;;;5.53;4.20;;;;;;;;;;4978836;28;20228;-81
2023/04/28 15:06:21;;;;;;;7.30;4.47;;;;;;;;;;4986770;28;20231;-81